createdAt,value
2022-11-25T00:01:23.177Z,4.00
2022-11-25T00:03:52.172Z,4.00
2022-11-25T00:06:20.804Z,4.00
2022-11-25T00:08:51.254Z,4.00
2022-11-25T00:11:18.847Z,4.00
2022-11-25T00:13:47.296Z,4.00
2022-11-25T00:16:17.847Z,3.90
2022-11-25T00:18:46.573Z,3.90
2022-11-25T00:21:17.071Z,4.00
2022-11-25T00:23:44.676Z,4.00
2022-11-25T00:26:15.601Z,4.00
2022-11-25T00:28:45.072Z,4.00
2022-11-25T00:31:19.977Z,4.00
2022-11-25T00:33:48.082Z,4.10
2022-11-25T00:36:20.801Z,4.10
2022-11-25T00:38:56.249Z,4.00
2022-11-25T00:41:43.265Z,4.00
2022-11-25T00:44:31.637Z,4.00
2022-11-25T00:46:59.490Z,4.00
2022-11-25T00:49:27.902Z,4.00
2022-11-25T00:51:55.421Z,3.90
2022-11-25T00:54:23.112Z,3.90
2022-11-25T00:56:51.135Z,3.90
2022-11-25T00:59:18.989Z,3.80
2022-11-25T01:01:46.389Z,3.80
2022-11-25T01:04:14.212Z,3.80
2022-11-25T01:06:41.783Z,3.90
2022-11-25T01:09:11.387Z,3.90
2022-11-25T01:11:39.872Z,3.80
2022-11-25T01:14:07.620Z,3.70
2022-11-25T01:16:34.962Z,3.70
2022-11-25T01:19:03.314Z,3.70
2022-11-25T01:21:32.998Z,3.70
2022-11-25T01:24:02.301Z,3.70
2022-11-25T01:26:30.484Z,3.60
2022-11-25T01:29:00.010Z,3.60
2022-11-25T01:31:31.216Z,3.50
2022-11-25T01:34:08.357Z,3.40
2022-11-25T01:36:36.013Z,3.40
2022-11-25T01:39:04.324Z,3.40
2022-11-25T01:41:33.057Z,3.30
2022-11-25T01:44:12.379Z,3.40
2022-11-25T01:46:52.490Z,3.40
2022-11-25T01:49:24.010Z,3.40
2022-11-25T01:52:01.300Z,3.50
2022-11-25T01:54:35.438Z,3.50
2022-11-25T01:57:08.179Z,3.60
2022-11-25T01:59:39.943Z,3.70
2022-11-25T02:02:07.740Z,3.70
2022-11-25T02:04:38.745Z,3.60
2022-11-25T02:07:25.994Z,3.60
2022-11-25T02:09:55.508Z,3.60
2022-11-25T02:12:23.954Z,3.60
2022-11-25T02:14:52.157Z,3.60
2022-11-25T02:17:19.853Z,3.70
2022-11-25T02:19:52.866Z,3.80
2022-11-25T02:22:34.734Z,3.80
2022-11-25T02:25:15.519Z,3.80
2022-11-25T02:27:45.998Z,3.70
2022-11-25T02:30:13.767Z,3.70
2022-11-25T02:32:47.375Z,3.70
2022-11-25T02:35:23.869Z,3.60
2022-11-25T02:37:52.353Z,3.60
2022-11-25T02:40:19.974Z,3.60
2022-11-25T02:42:49.705Z,3.50
2022-11-25T02:45:22.539Z,3.50
2022-11-25T02:47:49.719Z,3.50
2022-11-25T02:50:16.977Z,3.50
2022-11-25T02:52:45.160Z,3.40
2022-11-25T02:55:12.307Z,3.50
2022-11-25T02:57:39.501Z,3.50
2022-11-25T03:00:07.341Z,3.40
2022-11-25T03:02:35.198Z,3.40
2022-11-25T03:05:02.594Z,3.30
2022-11-25T03:07:29.947Z,3.30
2022-11-25T03:09:59.728Z,3.40
2022-11-25T03:12:28.945Z,3.50
2022-11-25T03:14:57.926Z,3.60
2022-11-25T03:17:25.260Z,3.70
2022-11-25T03:19:52.751Z,3.70
2022-11-25T03:22:19.899Z,3.70
2022-11-25T03:24:47.113Z,3.70
2022-11-25T03:27:14.405Z,3.70
2022-11-25T03:29:41.994Z,3.70
2022-11-25T03:32:09.801Z,3.60
2022-11-25T03:34:38.902Z,3.50
2022-11-25T03:37:07.433Z,3.40
2022-11-25T03:39:35.065Z,3.40
2022-11-25T03:42:02.376Z,3.40
2022-11-25T03:44:29.596Z,3.30
2022-11-25T03:46:59.295Z,3.20
2022-11-25T03:49:26.450Z,3.20
2022-11-25T03:51:54.748Z,3.20
2022-11-25T03:54:22.246Z,3.20
2022-11-25T03:57:08.118Z,3.20
2022-11-25T03:59:36.098Z,3.40
2022-11-25T04:02:03.523Z,3.40
2022-11-25T04:04:31.927Z,3.50
2022-11-25T04:06:59.127Z,3.60
2022-11-25T04:09:26.352Z,3.70
2022-11-25T04:12:13.928Z,3.70
2022-11-25T04:14:50.367Z,3.70
2022-11-25T04:17:18.184Z,3.70
2022-11-25T04:19:45.998Z,3.60
2022-11-25T04:22:14.201Z,3.60
2022-11-25T04:24:44.736Z,3.60
2022-11-25T04:27:15.154Z,3.60
2022-11-25T04:29:42.722Z,3.50
2022-11-25T04:32:11.626Z,3.50
2022-11-25T04:34:39.206Z,3.50
2022-11-25T04:37:06.516Z,3.50
2022-11-25T04:39:33.807Z,3.50
2022-11-25T04:42:27.624Z,3.50
2022-11-25T04:45:14.489Z,3.40
2022-11-25T04:47:44.950Z,3.40
2022-11-25T04:50:18.955Z,3.40
2022-11-25T04:52:55.362Z,3.40
2022-11-25T04:55:23.848Z,3.40
2022-11-25T04:57:51.524Z,3.40
2022-11-25T05:00:20.605Z,3.40
2022-11-25T05:02:48.552Z,3.40
2022-11-25T05:05:19.888Z,3.50
2022-11-25T05:07:47.114Z,3.60
2022-11-25T05:10:15.307Z,3.60
2022-11-25T05:12:46.359Z,3.80
2022-11-25T05:15:18.091Z,3.90
2022-11-25T05:17:47.849Z,3.90
2022-11-25T05:20:19.203Z,4.00
2022-11-25T05:22:47.093Z,4.10
2022-11-25T05:25:20.751Z,4.20
2022-11-25T05:28:03.654Z,4.20
2022-11-25T05:30:30.961Z,4.20
2022-11-25T05:33:00.028Z,4.20
2022-11-25T05:35:27.948Z,4.20
2022-11-25T05:37:55.203Z,4.20
2022-11-25T05:40:22.554Z,4.30
2022-11-25T05:43:01.086Z,4.30
2022-11-25T05:45:30.210Z,4.20
2022-11-25T05:47:58.346Z,4.10
2022-11-25T05:50:27.785Z,4.20
2022-11-25T05:53:11.155Z,4.10
2022-11-25T05:55:38.432Z,4.10
2022-11-25T05:58:12.446Z,4.10
2022-11-25T06:00:43.276Z,4.10
2022-11-25T06:03:11.480Z,4.00
2022-11-25T06:05:38.711Z,4.00
2022-11-25T06:08:06.025Z,4.00
2022-11-25T06:10:33.411Z,4.00
2022-11-25T06:13:01.177Z,3.90
2022-11-25T06:15:28.967Z,3.90
2022-11-25T06:17:58.329Z,4.00
2022-11-25T06:20:27.190Z,4.00
2022-11-25T06:22:54.426Z,4.00
2022-11-25T06:25:27.590Z,4.00
2022-11-25T06:28:12.533Z,4.00
2022-11-25T06:30:42.134Z,4.00
2022-11-25T06:33:18.865Z,4.00
2022-11-25T06:35:47.955Z,4.00
2022-11-25T06:38:15.127Z,4.10
2022-11-25T06:40:42.326Z,4.20
2022-11-25T06:43:09.465Z,4.10
2022-11-25T06:45:36.669Z,4.20
2022-11-25T06:48:04.388Z,4.20
2022-11-25T06:50:31.609Z,4.30
2022-11-25T06:53:01.225Z,4.30
2022-11-25T06:55:28.347Z,4.30
2022-11-25T06:58:13.868Z,4.30
2022-11-25T07:00:43.391Z,4.30
2022-11-25T07:03:10.736Z,4.20
2022-11-25T07:05:37.932Z,4.10
2022-11-25T07:08:05.806Z,4.10
2022-11-25T07:10:34.145Z,4.10
2022-11-25T07:13:01.614Z,4.20
2022-11-25T07:15:29.458Z,4.30
2022-11-25T07:17:56.613Z,4.40
2022-11-25T07:20:25.161Z,4.50
2022-11-25T07:22:52.390Z,4.60
2022-11-25T07:25:19.828Z,4.60
2022-11-25T07:27:47.589Z,4.60
2022-11-25T07:33:02.734Z,4.70
2022-11-25T07:35:29.946Z,4.70
2022-11-25T07:37:57.506Z,4.80
2022-11-25T07:40:24.644Z,4.90
2022-11-25T07:42:51.903Z,4.90
2022-11-25T07:45:24.691Z,5.00
2022-11-25T07:47:59.405Z,5.00
2022-11-25T07:50:26.575Z,5.00
2022-11-25T07:52:53.788Z,5.10
2022-11-25T07:55:20.935Z,5.10
2022-11-25T07:57:48.290Z,5.20
2022-11-25T08:00:16.561Z,5.20
2022-11-25T08:02:43.765Z,5.20
2022-11-25T08:05:11.835Z,5.30
2022-11-25T08:07:39.947Z,5.40
2022-11-25T08:10:08.345Z,5.40
2022-11-25T08:12:35.657Z,5.40
2022-11-25T08:15:05.021Z,5.50
2022-11-25T08:17:32.958Z,5.50
2022-11-25T08:20:00.161Z,5.50
2022-11-25T08:22:28.269Z,5.60
2022-11-25T08:24:55.566Z,5.60
2022-11-25T08:27:22.995Z,5.60
2022-11-25T08:29:51.347Z,5.60
2022-11-25T08:32:18.534Z,5.60
2022-11-25T08:34:45.867Z,5.60
2022-11-25T08:37:13.758Z,5.60
2022-11-25T08:39:56.673Z,5.60
2022-11-25T08:42:24.277Z,5.60
2022-11-25T08:44:53.656Z,5.60
2022-11-25T08:47:21.601Z,5.60
2022-11-25T08:49:54.128Z,5.60
2022-11-25T08:52:22.236Z,5.70
2022-11-25T08:54:49.657Z,5.60
2022-11-25T08:57:42.521Z,5.60
2022-11-25T09:00:10.781Z,5.60
2022-11-25T09:02:38.145Z,5.60
2022-11-25T09:05:05.780Z,5.50
2022-11-25T09:07:33.197Z,5.50
2022-11-25T09:10:00.512Z,5.50
2022-11-25T09:12:27.757Z,5.50
2022-11-25T09:14:55.006Z,5.50
2022-11-25T09:17:22.274Z,5.50
2022-11-25T09:19:49.796Z,5.60
2022-11-25T09:22:17.233Z,5.60
2022-11-25T09:24:46.875Z,5.60
2022-11-25T09:27:14.025Z,5.60
2022-11-25T09:29:41.188Z,5.70
2022-11-25T09:32:08.723Z,5.70
2022-11-25T09:34:36.209Z,5.70
2022-11-25T09:37:03.589Z,5.80
2022-11-25T09:39:30.952Z,5.80
2022-11-25T09:42:49.612Z,5.80
2022-11-25T09:45:56.768Z,5.90
2022-11-25T09:48:38.708Z,6.00
2022-11-25T09:51:26.161Z,6.20
2022-11-25T09:54:19.987Z,6.50
2022-11-25T09:56:53.345Z,6.50
2022-11-25T09:59:35.543Z,6.60
2022-11-25T10:02:13.945Z,6.70
2022-11-25T10:04:47.651Z,6.90
2022-11-25T10:07:22.255Z,6.90
2022-11-25T10:09:49.481Z,7.20
2022-11-25T10:12:22.546Z,7.10
2022-11-25T10:14:54.008Z,7.00
2022-11-25T10:17:35.242Z,7.00
2022-11-25T10:20:32.325Z,6.90
2022-11-25T10:23:12.146Z,6.80
2022-11-25T10:25:46.262Z,6.80
2022-11-25T10:28:22.120Z,6.70
2022-11-25T10:31:12.627Z,6.80
2022-11-25T10:33:45.968Z,6.90
2022-11-25T10:36:26.305Z,7.00
2022-11-25T10:39:19.523Z,6.90
2022-11-25T10:42:08.188Z,7.00
2022-11-25T10:44:38.075Z,7.00
2022-11-25T10:47:34.198Z,6.90
2022-11-25T10:50:36.776Z,7.00
2022-11-25T10:53:17.744Z,6.90
2022-11-25T10:56:04.409Z,6.90
2022-11-25T10:58:38.137Z,6.90
2022-11-25T11:01:13.013Z,7.00
2022-11-25T11:03:40.846Z,7.10
2022-11-25T11:06:36.189Z,7.20
2022-11-25T11:09:04.285Z,7.30
2022-11-25T11:11:31.977Z,7.30
2022-11-25T11:14:08.272Z,7.30
2022-11-25T11:16:41.951Z,7.30
2022-11-25T11:19:24.304Z,7.20
2022-11-25T11:21:52.478Z,7.20
2022-11-25T11:24:27.396Z,7.10
2022-11-25T11:27:25.206Z,7.20
2022-11-25T11:30:23.123Z,7.30
2022-11-25T11:33:06.080Z,7.40
2022-11-25T11:35:52.104Z,7.40
2022-11-25T11:38:34.791Z,7.60
2022-11-25T11:41:48.301Z,7.60
2022-11-25T11:44:21.665Z,7.30
2022-11-25T11:47:22.162Z,8.20
2022-11-25T11:50:01.996Z,7.70
2022-11-25T11:52:56.459Z,7.80
2022-11-25T11:56:00.302Z,7.90
2022-11-25T12:01:22.208Z,8.00
2022-11-25T12:04:07.379Z,8.00
2022-11-25T12:06:38.456Z,7.90
2022-11-25T12:09:15.624Z,8.00
2022-11-25T12:11:48.267Z,8.00
2022-11-25T12:14:39.826Z,8.00
2022-11-25T12:17:17.993Z,8.10
2022-11-25T12:20:15.730Z,8.10
2022-11-25T12:23:13.631Z,8.10
2022-11-25T12:25:42.160Z,8.00
2022-11-25T12:28:28.985Z,8.00
2022-11-25T12:31:11.577Z,8.00
2022-11-25T12:34:04.279Z,8.00
2022-11-25T12:36:46.527Z,8.00
2022-11-25T12:39:32.534Z,8.00
2022-11-25T12:42:02.266Z,8.00
2022-11-25T12:44:43.403Z,7.90
2022-11-25T12:47:11.628Z,7.90
2022-11-25T12:49:43.566Z,7.80
2022-11-25T12:52:42.670Z,7.90
2022-11-25T12:55:28.683Z,7.90
2022-11-25T12:58:08.696Z,7.90
2022-11-25T13:01:15.985Z,7.90
2022-11-25T13:04:10.349Z,8.10
2022-11-25T13:07:08.359Z,8.30
2022-11-25T13:09:58.868Z,8.50
2022-11-25T13:13:04.666Z,8.60
2022-11-25T13:15:41.666Z,8.80
2022-11-25T13:18:22.695Z,8.90
2022-11-25T13:20:54.669Z,8.80
2022-11-25T13:23:27.184Z,8.90
2022-11-25T13:26:29.613Z,9.10
2022-11-25T13:28:57.242Z,9.30
2022-11-25T13:31:30.529Z,9.40
2022-11-25T13:33:57.665Z,9.40
2022-11-25T13:36:42.858Z,9.40
2022-11-25T13:39:29.026Z,9.40
2022-11-25T13:42:19.609Z,9.30
2022-11-25T13:44:51.369Z,9.30
2022-11-25T13:47:38.816Z,9.30
2022-11-25T13:50:36.702Z,9.40
2022-11-25T13:53:24.712Z,9.50
2022-11-25T13:55:54.964Z,9.40
2022-11-25T13:58:33.000Z,9.40
2022-11-25T14:01:22.528Z,9.40
2022-11-25T14:04:00.035Z,9.40
2022-11-25T14:06:51.174Z,9.40
2022-11-25T14:09:46.535Z,9.30
2022-11-25T14:12:47.043Z,9.10
2022-11-25T14:15:29.836Z,9.10
2022-11-25T14:18:02.943Z,9.00
2022-11-25T14:20:44.210Z,8.90
2022-11-25T14:23:44.034Z,8.90
2022-11-25T14:26:48.206Z,8.80
2022-11-25T14:29:28.081Z,8.70
2022-11-25T14:32:18.427Z,8.70
2022-11-25T14:34:50.284Z,8.70
2022-11-25T14:37:45.917Z,8.70
2022-11-25T14:40:17.818Z,8.60
2022-11-25T14:42:48.256Z,8.60
2022-11-25T14:45:30.545Z,8.60
2022-11-25T14:47:57.832Z,8.60
2022-11-25T14:50:40.765Z,8.60
2022-11-25T14:53:09.944Z,8.50
2022-11-25T14:55:37.953Z,8.50
2022-11-25T14:58:05.153Z,8.50
2022-11-25T15:00:32.347Z,8.50
2022-11-25T15:03:06.398Z,8.50
2022-11-25T15:05:39.004Z,8.50
2022-11-25T15:08:13.140Z,8.50
2022-11-25T15:10:49.884Z,8.50
2022-11-25T15:13:38.810Z,8.50
2022-11-25T15:16:19.667Z,8.50
2022-11-25T15:18:57.093Z,8.50
2022-11-25T15:22:07.074Z,8.40
2022-11-25T15:24:32.035Z,8.40
2022-11-25T15:27:02.436Z,8.40
2022-11-25T15:29:31.112Z,8.40
2022-11-25T15:31:59.714Z,8.40
2022-11-25T15:34:29.482Z,8.40
2022-11-25T15:37:02.100Z,8.40
2022-11-25T15:39:30.589Z,8.30
2022-11-25T15:42:11.703Z,8.30
2022-11-25T15:44:45.622Z,8.30
2022-11-25T15:47:26.215Z,8.40
2022-11-25T15:50:00.745Z,8.40
2022-11-25T15:52:32.558Z,8.40
2022-11-25T15:55:04.139Z,8.30
2022-11-25T15:57:35.111Z,8.30
2022-11-25T16:00:14.714Z,8.30
2022-11-25T16:02:41.901Z,8.30
2022-11-25T16:05:15.257Z,8.30
2022-11-25T16:07:51.631Z,8.20
2022-11-25T16:10:19.340Z,8.10
2022-11-25T16:13:22.838Z,8.00
2022-11-25T16:15:55.611Z,7.80
2022-11-25T16:18:40.656Z,7.70
2022-11-25T16:21:14.546Z,7.70
2022-11-25T16:23:52.448Z,7.80
2022-11-25T16:26:28.280Z,7.80
2022-11-25T16:29:00.972Z,7.90
2022-11-25T16:31:28.774Z,7.90
2022-11-25T16:34:15.151Z,7.90
2022-11-25T16:36:42.648Z,8.00
2022-11-25T16:39:10.027Z,7.90
2022-11-25T16:41:38.111Z,7.90
2022-11-25T16:44:11.637Z,7.80
2022-11-25T16:46:39.334Z,7.70
2022-11-25T16:49:14.363Z,7.50
2022-11-25T16:51:42.043Z,7.40
2022-11-25T16:54:10.083Z,7.40
2022-11-25T16:56:40.322Z,7.40
2022-11-25T16:59:15.425Z,7.40
2022-11-25T17:01:43.484Z,7.50
2022-11-25T17:04:18.250Z,7.50
2022-11-25T17:06:54.016Z,7.60
2022-11-25T17:09:32.229Z,7.60
2022-11-25T17:11:59.409Z,7.60
2022-11-25T17:14:35.762Z,7.60
2022-11-25T17:17:04.268Z,7.70
2022-11-25T17:19:31.964Z,7.70
2022-11-25T17:21:59.179Z,7.70
2022-11-25T17:24:27.066Z,7.70
2022-11-25T17:26:58.755Z,7.70
2022-11-25T17:29:34.634Z,7.80
2022-11-25T17:32:02.186Z,7.80
2022-11-25T17:34:30.416Z,7.80
2022-11-25T17:37:00.335Z,7.70
2022-11-25T17:39:27.512Z,7.70
2022-11-25T17:41:55.266Z,7.70
2022-11-25T17:44:29.261Z,7.70
2022-11-25T17:46:57.733Z,7.70
2022-11-25T17:49:25.494Z,7.70
2022-11-25T17:51:53.814Z,7.70
2022-11-25T17:54:21.062Z,7.60
2022-11-25T17:56:52.411Z,7.60
2022-11-25T17:59:30.173Z,7.60
2022-11-25T18:01:59.114Z,7.70
2022-11-25T18:04:30.184Z,7.70
2022-11-25T18:06:57.524Z,7.70
2022-11-25T18:09:24.859Z,7.70
2022-11-25T18:11:56.637Z,7.70
2022-11-25T18:14:32.809Z,7.70
2022-11-25T18:17:06.492Z,7.80
2022-11-25T18:19:34.721Z,7.80
2022-11-25T18:22:14.317Z,7.90
2022-11-25T18:24:41.769Z,7.90
2022-11-25T18:27:28.255Z,7.90
2022-11-25T18:29:56.419Z,8.00
2022-11-25T18:32:25.058Z,8.00
2022-11-25T18:34:52.294Z,8.00
2022-11-25T18:37:19.575Z,8.10
2022-11-25T18:39:46.843Z,8.10
2022-11-25T18:42:26.461Z,8.10
2022-11-25T18:44:55.084Z,8.10
2022-11-25T18:47:22.307Z,8.10
2022-11-25T18:49:55.128Z,8.20
2022-11-25T18:52:24.051Z,8.20
2022-11-25T18:54:51.498Z,8.20
2022-11-25T18:57:19.022Z,8.20
2022-11-25T18:59:56.005Z,8.20
2022-11-25T19:02:34.961Z,8.20
2022-11-25T19:05:06.255Z,8.20
2022-11-25T19:07:33.555Z,8.20
2022-11-25T19:10:00.899Z,8.20
2022-11-25T19:12:28.190Z,8.20
2022-11-25T19:14:57.173Z,8.20
2022-11-25T19:17:25.962Z,8.20
2022-11-25T19:19:53.595Z,8.20
2022-11-25T19:22:22.646Z,8.30
2022-11-25T19:24:50.333Z,8.20
2022-11-25T19:27:21.516Z,8.20
2022-11-25T19:29:49.699Z,8.30
2022-11-25T19:32:22.816Z,8.30
2022-11-25T19:35:01.120Z,8.30
2022-11-25T19:37:30.601Z,8.30
2022-11-25T19:39:58.476Z,8.20
2022-11-25T19:42:25.967Z,8.30
2022-11-25T19:44:53.318Z,8.30
2022-11-25T19:47:23.993Z,8.30
2022-11-25T19:49:59.861Z,8.30
2022-11-25T19:52:33.008Z,8.40
2022-11-25T19:55:00.373Z,8.40
2022-11-25T19:57:28.266Z,8.40
2022-11-25T19:59:55.813Z,8.40
2022-11-25T20:02:26.049Z,8.40
2022-11-25T20:04:55.898Z,8.40
2022-11-25T20:07:23.295Z,8.40
2022-11-25T20:09:54.491Z,8.40
2022-11-25T20:12:25.260Z,8.40
2022-11-25T20:14:52.570Z,8.40
2022-11-25T20:17:25.464Z,8.40
2022-11-25T20:19:55.674Z,8.40
2022-11-25T20:22:31.397Z,8.40
2022-11-25T20:25:02.015Z,8.50
2022-11-25T20:27:30.516Z,8.50
2022-11-25T20:29:58.175Z,8.40
2022-11-25T20:32:29.540Z,8.50
2022-11-25T20:35:00.222Z,8.40
2022-11-25T20:37:40.304Z,8.40
2022-11-25T20:40:16.567Z,8.50
2022-11-25T20:42:44.216Z,8.40
2022-11-25T20:45:20.709Z,8.40
2022-11-25T20:47:51.316Z,8.40
2022-11-25T20:50:21.929Z,8.40
2022-11-25T20:52:52.600Z,8.40
2022-11-25T20:55:23.844Z,8.40
2022-11-25T20:57:52.302Z,8.40
2022-11-25T21:00:24.066Z,8.30
2022-11-25T21:02:53.584Z,8.30
2022-11-25T21:05:21.427Z,8.30
2022-11-25T21:07:50.628Z,8.30
2022-11-25T21:10:25.682Z,8.30
2022-11-25T21:12:54.245Z,8.30
2022-11-25T21:15:24.179Z,8.30
2022-11-25T21:17:51.710Z,8.20
2022-11-25T21:20:20.039Z,8.20
2022-11-25T21:22:55.376Z,8.20
2022-11-25T21:25:23.618Z,8.20
2022-11-25T21:27:52.123Z,8.20
2022-11-25T21:30:21.242Z,8.20
2022-11-25T21:32:48.760Z,8.10
2022-11-25T21:35:16.019Z,7.90
2022-11-25T21:37:44.455Z,7.70
2022-11-25T21:40:35.349Z,7.50
2022-11-25T21:43:04.728Z,7.40
2022-11-25T21:45:32.767Z,7.30
2022-11-25T21:47:59.934Z,7.20
2022-11-25T21:50:29.676Z,7.20
2022-11-25T21:52:57.258Z,7.00
2022-11-25T21:55:25.013Z,6.90
2022-11-25T21:57:52.755Z,6.80
2022-11-25T22:00:25.430Z,6.70
2022-11-25T22:02:53.343Z,6.60
2022-11-25T22:05:21.961Z,6.50
2022-11-25T22:07:49.215Z,6.50
2022-11-25T22:10:18.615Z,6.50
2022-11-25T22:12:47.241Z,6.40
2022-11-25T22:15:19.307Z,6.40
2022-11-25T22:17:47.209Z,6.40
2022-11-25T22:20:23.473Z,6.30
2022-11-25T22:22:50.822Z,6.30
2022-11-25T22:25:18.021Z,6.30
2022-11-25T22:27:46.599Z,6.20
2022-11-25T22:30:20.077Z,6.20
2022-11-25T22:32:55.010Z,6.10
2022-11-25T22:35:22.459Z,6.00
2022-11-25T22:37:55.012Z,6.00
2022-11-25T22:40:23.948Z,6.10
2022-11-25T22:42:54.980Z,6.00
2022-11-25T22:45:32.721Z,6.10
2022-11-25T22:48:04.762Z,6.10
2022-11-25T22:50:34.066Z,6.10
2022-11-25T22:53:01.933Z,6.10
2022-11-25T22:55:32.508Z,6.00
2022-11-25T22:58:01.370Z,5.90
2022-11-25T23:00:36.015Z,5.90
2022-11-25T23:03:07.180Z,5.90
2022-11-25T23:05:36.908Z,5.90
2022-11-25T23:08:15.980Z,5.90
2022-11-25T23:10:43.692Z,5.90
2022-11-25T23:13:14.417Z,5.90
2022-11-25T23:15:48.079Z,5.90
2022-11-25T23:18:20.626Z,6.00
2022-11-25T23:20:49.295Z,6.00
2022-11-25T23:23:19.513Z,6.10
2022-11-25T23:25:47.404Z,5.90
2022-11-25T23:28:16.164Z,5.80
2022-11-25T23:30:52.709Z,5.90
2022-11-25T23:33:38.984Z,5.80
2022-11-25T23:36:10.405Z,5.80
2022-11-25T23:38:58.530Z,5.80
2022-11-25T23:41:28.564Z,5.90
2022-11-25T23:43:56.268Z,5.80
2022-11-25T23:46:29.313Z,5.80
2022-11-25T23:48:59.363Z,5.80
2022-11-25T23:51:28.167Z,5.80
2022-11-25T23:53:56.798Z,5.70
2022-11-25T23:56:26.851Z,5.60
2022-11-25T23:58:54.021Z,5.70
